Terminal Aerodrome Forecast
Issued by NWS

Home | Current Version | Previous Version | Graphics & Text | Print | Product List | Glossary Off
Versions: 1 2 3 4 5 6 7 8 9 10 11 12 13

000
FTUS43 KDDC 201120
TAFHYS
TAF
KHYS 201120Z 2012/2112 22010KT P6SM SKC
     FM210800 31008KT P6SM BKN140
     FM211100 34009KT P6SM SCT120=

USA.gov is the U.S. government's official web portal to all federal, state and local government web resources and services.